Time;durP1;ratioP1;P1;durP2;ratioP2;P2;SDS_P1;SDS_P2;PMS_P1;PMS_P2;Temp;Humidity;BMP_temperature;BMP_pressure;BME280_temperature;BME280_humidity;BME280_pressure;Samples;Min_cycle;Max_cycle;Signal;HPM_P1;HPM_P2
2022/05/09 00:01:15;;;;;;;7.70;2.47;;;14.00;99.90;;;;;;5060948;28;20547;-75
2022/05/09 00:03:44;;;;;;;7.55;3.28;;;14.00;99.90;;;;;;5059473;28;20048;-78
2022/05/09 00:06:13;;;;;;;4.18;2.67;;;14.00;99.90;;;;;;5067839;28;20020;-76
2022/05/09 00:08:42;;;;;;;5.82;2.60;;;14.00;99.90;;;;;;5054687;28;20028;-75
2022/05/09 00:11:13;;;;;;;4.45;2.40;;;14.00;99.90;;;;;;5071410;28;20099;-75
2022/05/09 00:13:41;;;;;;;7.05;3.05;;;14.10;99.90;;;;;;5060016;28;20491;-75
2022/05/09 00:16:09;;;;;;;4.53;2.30;;;14.10;99.90;;;;;;5067691;28;20382;-75
2022/05/09 00:18:37;;;;;;;5.45;2.40;;;14.10;99.90;;;;;;5056202;28;20363;-75
2022/05/09 00:21:05;;;;;;;3.88;2.33;;;14.20;99.90;;;;;;5066162;28;20057;-75
2022/05/09 00:23:33;;;;;;;4.18;2.40;;;14.20;99.90;;;;;;5064037;28;20027;-75
2022/05/09 00:26:01;;;;;;;7.70;2.20;;;14.20;99.90;;;;;;5058546;28;20044;-75
2022/05/09 00:28:29;;;;;;;2.60;2.25;;;14.30;99.90;;;;;;5069697;28;20107;-75
2022/05/09 00:30:57;;;;;;;4.50;2.20;;;14.30;99.90;;;;;;5058734;28;20070;-75
2022/05/09 00:33:25;;;;;;;5.68;2.25;;;14.40;99.90;;;;;;5063349;28;20055;-75
2022/05/09 00:35:53;;;;;;;2.95;1.77;;;14.50;99.90;;;;;;5066400;28;20047;-75
2022/05/09 00:38:21;;;;;;;6.95;2.17;;;14.50;99.90;;;;;;5056407;28;20029;-75
2022/05/09 00:43:53;;;;;;;3.97;2.20;;;14.60;99.90;;;;;;5044067;28;20119;-78
2022/05/09 00:46:21;;;;;;;6.00;1.98;;;14.60;99.90;;;;;;5051890;28;20420;-76
2022/05/09 00:48:49;;;;;;;3.03;1.73;;;14.60;99.90;;;;;;5068180;28;20029;-78
2022/05/09 00:51:23;;;;;;;7.47;2.08;;;14.60;99.90;;;;;;5059822;28;20032;-78
2022/05/09 00:53:53;;;;;;;2.80;1.58;;;14.60;99.90;;;;;;5059317;28;20029;-78
2022/05/09 00:56:35;;;;;;;3.22;1.95;;;14.50;99.90;;;;;;5067734;28;20522;-75
2022/05/09 00:59:08;;;;;;;13.80;1.92;;;14.60;99.90;;;;;;5059208;28;20481;-78
2022/05/09 01:01:37;;;;;;;7.97;1.88;;;14.50;99.90;;;;;;5061140;28;20095;-78
2022/05/09 01:04:13;;;;;;;4.70;2.35;;;14.60;99.90;;;;;;5067437;28;20017;-77
2022/05/09 01:06:40;;;;;;;;;;;14.60;99.90;;;;;;5056396;28;20110;-79
2022/05/09 01:09:10;;;;;;;7.32;2.15;;;14.50;99.90;;;;;;5072390;28;19966;-77
2022/05/09 01:11:39;;;;;;;2.58;1.50;;;14.50;99.90;;;;;;5060997;28;20025;-78
2022/05/09 01:14:19;;;;;;;6.13;2.42;;;14.50;99.90;;;;;;5067850;28;20095;-77
2022/05/09 01:16:47;;;;;;;3.60;1.58;;;14.50;99.90;;;;;;5056569;28;20050;-78
2022/05/09 01:19:28;;;;;;;3.50;1.85;;;14.50;99.90;;;;;;5072179;28;20108;-78
2022/05/09 01:21:56;;;;;;;4.30;1.90;;;14.60;99.90;;;;;;5058355;28;20120;-79
2022/05/09 01:24:26;;;;;;;3.00;1.63;;;14.60;99.90;;;;;;5068807;28;20028;-79
2022/05/09 01:26:55;;;;;;;4.68;1.48;;;14.60;99.90;;;;;;5057608;28;20107;-78
2022/05/09 01:29:52;;;;;;;4.30;1.98;;;14.60;99.90;;;;;;5061908;28;20123;-77
2022/05/09 01:32:45;;;;;;;2.05;1.23;;;14.60;99.90;;;;;;5045862;28;20115;-79
2022/05/09 01:35:31;;;;;;;9.63;1.98;;;14.60;99.90;;;;;;5052868;28;20072;-76
2022/05/09 01:38:06;;;;;;;;;;;14.80;99.90;;;;;;5066989;28;20089;-79
2022/05/09 01:40:34;;;;;;;4.60;1.80;;;14.70;99.90;;;;;;5055456;28;20352;-79
2022/05/09 01:43:01;;;;;;;3.40;2.20;;;14.70;99.90;;;;;;5065508;28;20079;-78
2022/05/09 01:45:29;;;;;;;21.17;2.40;;;14.70;99.90;;;;;;5062204;28;20032;-79
2022/05/09 01:50:42;;;;;;;3.75;2.30;;;14.70;99.90;;;;;;5055732;28;20031;-79
2022/05/09 01:53:10;;;;;;;3.70;2.33;;;14.70;99.90;;;;;;5071883;28;20029;-79
2022/05/09 01:55:38;;;;;;;2.90;1.80;;;14.60;99.90;;;;;;5060376;28;20032;-79
2022/05/09 01:58:06;;;;;;;6.50;2.45;;;14.60;99.90;;;;;;5067120;28;20036;-79
2022/05/09 02:00:33;;;;;;;8.50;2.58;;;14.60;99.90;;;;;;5054790;28;20029;-79
2022/05/09 02:03:02;;;;;;;4.05;2.22;;;14.60;99.90;;;;;;5063640;28;20041;-76
2022/05/09 02:05:30;;;;;;;6.05;2.45;;;14.60;99.90;;;;;;5062065;28;20028;-79
2022/05/09 02:07:57;;;;;;;7.18;3.25;;;14.60;99.90;;;;;;5057709;28;20029;-79
2022/05/09 02:10:25;;;;;;;4.65;2.22;;;14.60;99.90;;;;;;5068191;28;20025;-79
2022/05/09 02:12:53;;;;;;;3.90;2.42;;;14.60;99.90;;;;;;5056721;28;20477;-76
2022/05/09 02:15:21;;;;;;;3.17;2.30;;;14.70;99.90;;;;;;5062494;28;20032;-76
2022/05/09 02:17:48;;;;;;;4.00;2.88;;;14.80;99.90;;;;;;5053049;28;20035;-80
2022/05/09 02:20:16;;;;;;;6.68;3.13;;;14.80;99.90;;;;;;5053135;28;20538;-75
2022/05/09 02:22:44;;;;;;;8.32;2.85;;;14.80;99.90;;;;;;5067692;28;20520;-75
2022/05/09 02:25:29;;;;;;;4.95;2.45;;;14.80;99.90;;;;;;5056387;28;20024;-75
2022/05/09 02:28:01;;;;;;;6.65;2.95;;;14.70;99.90;;;;;;5073043;28;20021;-75
2022/05/09 02:30:29;;;;;;;4.25;2.78;;;14.80;99.90;;;;;;5072362;28;20025;-74
2022/05/09 02:32:57;;;;;;;6.13;2.50;;;14.80;99.90;;;;;;5070662;28;20032;-73
2022/05/09 02:35:25;;;;;;;3.15;2.40;;;14.70;99.90;;;;;;5070485;28;20090;-71
2022/05/09 02:37:53;;;;;;;2.50;2.25;;;14.70;99.90;;;;;;5070787;28;20029;-71
2022/05/09 02:40:21;;;;;;;4.85;3.08;;;14.70;99.90;;;;;;5070862;28;20032;-70
2022/05/09 02:42:49;;;;;;;4.82;2.65;;;14.80;99.90;;;;;;5074530;28;20720;-70
2022/05/09 02:45:17;;;;;;;4.97;2.95;;;14.80;99.90;;;;;;5074559;28;20028;-72
2022/05/09 02:47:45;;;;;;;6.25;2.42;;;14.90;99.90;;;;;;5076606;28;20103;-73
2022/05/09 02:50:14;;;;;;;3.15;1.65;;;14.90;99.90;;;;;;5076622;28;20024;-71
2022/05/09 02:52:42;;;;;;;4.55;2.10;;;14.90;99.90;;;;;;5076322;28;20028;-71
2022/05/09 02:55:12;;;;;;;2.55;1.95;;;15.00;99.90;;;;;;5076262;28;20123;-75
2022/05/09 02:57:41;;;;;;;2.22;1.48;;;15.00;99.90;;;;;;5076347;28;20099;-75
2022/05/09 03:00:26;;;;;;;2.60;1.48;;;15.10;99.90;;;;;;5076506;28;20501;-73
2022/05/09 03:05:43;;;;;;;;;;;15.10;99.90;;;;;;5077360;28;20047;-78
2022/05/09 03:08:13;;;;;;;2.35;1.20;;;15.20;99.90;;;;;;5076289;28;19915;-74
2022/05/09 03:10:42;;;;;;;5.57;1.55;;;15.20;99.90;;;;;;5076368;28;20024;-71
2022/05/09 03:13:12;;;;;;;2.03;1.42;;;15.20;99.90;;;;;;5076324;28;20033;-79
2022/05/09 03:15:43;;;;;;;2.63;1.70;;;15.20;99.90;;;;;;5075871;28;20025;-77
2022/05/09 03:18:11;;;;;;;3.25;1.52;;;15.30;99.90;;;;;;5076144;28;20031;-72
2022/05/09 03:20:40;;;;;;;4.93;1.90;;;15.30;99.90;;;;;;5075938;28;20024;-77
2022/05/09 03:23:09;;;;;;;1.90;1.40;;;15.40;99.90;;;;;;5075873;28;20044;-78
2022/05/09 03:25:38;;;;;;;2.55;1.40;;;15.40;99.90;;;;;;5076099;28;20025;-78
2022/05/09 03:28:08;;;;;;;4.60;1.45;;;15.40;99.90;;;;;;5075986;28;20108;-77
2022/05/09 03:30:37;;;;;;;1.67;1.20;;;15.40;99.90;;;;;;5075787;28;20024;-72
2022/05/09 03:33:06;;;;;;;1.90;1.13;;;15.40;99.90;;;;;;5075702;28;20021;-79
2022/05/09 03:35:35;;;;;;;1.20;1.08;;;15.50;99.90;;;;;;5075493;28;20508;-72
2022/05/09 03:38:19;;;;;;;1.63;1.15;;;15.40;99.90;;;;;;5075727;28;20017;-78
2022/05/09 03:40:47;;;;;;;2.78;1.30;;;15.40;99.90;;;;;;5075518;28;20479;-78
2022/05/09 03:43:15;;;;;;;3.35;1.35;;;15.40;99.90;;;;;;5075594;28;20033;-79
2022/05/09 03:45:45;;;;;;;1.67;1.17;;;15.50;99.90;;;;;;5075461;28;20021;-71
2022/05/09 03:48:13;;;;;;;2.00;1.25;;;15.50;99.90;;;;;;5075900;28;20354;-71
2022/05/09 03:50:41;;;;;;;6.00;1.25;;;15.50;99.90;;;;;;5075561;28;20028;-72
2022/05/09 03:53:08;;;;;;;4.57;1.67;;;15.50;99.90;;;;;;5074609;28;20508;-74
2022/05/09 03:55:36;;;;;;;1.40;0.90;;;15.40;99.90;;;;;;5075273;28;20024;-77
2022/05/09 03:58:04;;;;;;;2.33;1.00;;;15.40;99.90;;;;;;5075227;28;20043;-78
2022/05/09 04:00:35;;;;;;;3.15;1.33;;;15.40;99.90;;;;;;5075159;28;20039;-76
2022/05/09 04:03:04;;;;;;;2.65;1.63;;;15.30;99.90;;;;;;5075381;28;20028;-78
2022/05/09 04:05:32;;;;;;;5.50;1.45;;;15.40;99.90;;;;;;5075308;28;20119;-74
2022/05/09 04:08:02;;;;;;;2.15;1.48;;;15.40;99.90;;;;;;5075110;28;20050;-76
2022/05/09 04:10:32;;;;;;;2.20;1.20;;;15.40;99.90;;;;;;5075121;28;20016;-77
2022/05/09 04:13:01;;;;;;;4.35;1.45;;;15.30;99.90;;;;;;5075020;28;20024;-78
2022/05/09 04:18:17;;;;;;;1.98;1.40;;;15.40;99.90;;;;;;5075391;28;20039;-71
2022/05/09 04:20:49;;;;;;;3.55;1.75;;;15.40;99.90;;;;;;5074798;28;20050;-71
2022/05/09 04:23:18;;;;;;;3.42;1.38;;;15.40;99.90;;;;;;5075167;28;20104;-72
2022/05/09 04:25:48;;;;;;;1.60;1.13;;;15.40;99.90;;;;;;5074860;28;20465;-71
2022/05/09 04:28:19;;;;;;;2.78;1.48;;;15.40;99.90;;;;;;5074627;28;20416;-78
2022/05/09 04:30:47;;;;;;;1.52;1.17;;;15.40;99.90;;;;;;5074647;28;20036;-79
2022/05/09 04:33:15;;;;;;;3.72;1.23;;;15.40;99.90;;;;;;5074625;28;20027;-71
2022/05/09 04:35:43;;;;;;;3.08;1.80;;;15.30;99.90;;;;;;5073975;28;20124;-78
2022/05/09 04:38:23;;;;;;;2.35;1.27;;;15.30;99.90;;;;;;5074623;28;20028;-78
2022/05/09 04:40:56;;;;;;;2.60;1.58;;;15.40;99.90;;;;;;5073375;28;20354;-71
2022/05/09 04:43:28;;;;;;;1.55;1.25;;;15.30;99.90;;;;;;5074234;28;20025;-76
2022/05/09 04:45:58;;;;;;;3.10;1.80;;;15.30;99.90;;;;;;5074598;28;20086;-78
2022/05/09 04:48:26;;;;;;;4.45;1.30;;;15.40;99.90;;;;;;5074457;28;20531;-78
2022/05/09 04:50:54;;;;;;;4.93;1.60;;;15.40;99.90;;;;;;5074753;28;20028;-71
2022/05/09 04:53:22;;;;;;;2.60;1.05;;;15.30;99.90;;;;;;5064684;28;20033;-71
2022/05/09 04:55:49;;;;;;;2.83;1.40;;;15.30;99.90;;;;;;5063428;28;20558;-74
2022/05/09 04:58:20;;;;;;;2.72;1.40;;;15.30;99.90;;;;;;5060821;28;20515;-71
2022/05/09 05:00:49;;;;;;;5.00;1.60;;;15.40;99.90;;;;;;5069579;28;20112;-72
2022/05/09 05:03:17;;;;;;;3.20;1.38;;;15.40;99.90;;;;;;5069815;28;20036;-71
2022/05/09 05:05:45;;;;;;;3.45;1.50;;;15.40;99.90;;;;;;5070726;28;20530;-72
2022/05/09 05:08:16;;;;;;;3.17;1.70;;;15.50;99.90;;;;;;5072426;28;20132;-73
2022/05/09 05:10:44;;;;;;;3.38;2.05;;;15.50;99.90;;;;;;5069393;28;21536;-76
2022/05/09 05:13:13;;;;;;;3.08;1.13;;;15.50;99.90;;;;;;5058985;28;20028;-77
2022/05/09 05:15:41;;;;;;;5.80;1.42;;;15.50;99.90;;;;;;5061430;28;20035;-75
2022/05/09 05:18:09;;;;;;;4.25;1.48;;;15.60;99.90;;;;;;5062679;28;20095;-71
2022/05/09 05:20:37;;;;;;;6.15;1.70;;;15.50;99.90;;;;;;5071282;28;20034;-72
2022/05/09 05:23:05;;;;;;;2.25;1.20;;;15.50;99.90;;;;;;5069246;28;20050;-77
2022/05/09 05:25:32;;;;;;;4.35;1.33;;;15.60;99.90;;;;;;5071690;28;20009;-75
2022/05/09 05:28:00;;;;;;;3.38;1.38;;;15.50;99.90;;;;;;5071199;28;20028;-76
2022/05/09 05:30:28;;;;;;;3.50;1.40;;;15.50;99.90;;;;;;5071432;28;20024;-76
2022/05/09 05:32:57;;;;;;;2.92;1.70;;;15.40;99.90;;;;;;5071355;28;20024;-77
2022/05/09 05:35:25;;;;;;;2.45;1.60;;;15.40;99.90;;;;;;5071463;28;20562;-72
2022/05/09 05:37:54;;;;;;;2.60;1.77;;;15.40;99.90;;;;;;5072879;28;20031;-71
2022/05/09 05:40:22;;;;;;;5.13;1.52;;;15.40;99.90;;;;;;5067086;28;20070;-71
2022/05/09 05:42:52;;;;;;;2.53;0.95;;;15.40;99.90;;;;;;5072765;28;20039;-77
2022/05/09 05:45:22;;;;;;;1.42;1.02;;;15.40;99.90;;;;;;5072856;28;20029;-71
2022/05/09 05:47:52;;;;;;;2.20;1.20;;;15.50;99.90;;;;;;5072504;28;20035;-71
2022/05/09 05:50:22;;;;;;;1.38;1.10;;;15.40;99.90;;;;;;5072833;28;20025;-77
2022/05/09 05:52:51;;;;;;;3.58;1.58;;;15.40;99.90;;;;;;5072644;28;20480;-71
2022/05/09 05:55:19;;;;;;;2.47;1.30;;;15.40;99.90;;;;;;5072640;28;20028;-77
2022/05/09 05:57:47;;;;;;;1.88;1.25;;;15.40;99.90;;;;;;5069942;28;20465;-77
2022/05/09 06:00:21;;;;;;;6.75;1.30;;;15.40;99.90;;;;;;5072755;28;20021;-71
2022/05/09 06:02:50;;;;;;;6.05;1.67;;;15.40;99.90;;;;;;5072591;28;20028;-77
2022/05/09 06:05:19;;;;;;;5.80;1.52;;;15.50;99.90;;;;;;5072770;28;20350;-77
2022/05/09 06:07:52;;;;;;;2.42;1.45;;;15.50;99.90;;;;;;5072140;28;20040;-73
2022/05/09 06:10:20;;;;;;;2.65;1.23;;;15.50;99.90;;;;;;5071990;28;20032;-76
2022/05/09 06:12:48;;;;;;;2.60;1.50;;;15.40;99.90;;;;;;5071048;28;20021;-75
2022/05/09 06:15:29;;;;;;;3.45;1.67;;;15.40;99.90;;;;;;5071189;28;20409;-76
2022/05/09 06:17:59;;;;;;;1.10;0.98;;;15.50;99.90;;;;;;5074894;28;20099;-71
2022/05/09 06:20:31;;;;;;;2.05;1.13;;;15.40;99.90;;;;;;5076534;28;20118;-71
2022/05/09 06:23:00;;;;;;;6.35;1.75;;;15.40;99.90;;;;;;5077089;28;20465;-70
2022/05/09 06:25:30;;;;;;;1.77;1.20;;;15.40;99.90;;;;;;5076940;28;20025;-71
2022/05/09 06:27:58;;;;;;;3.22;1.20;;;15.40;99.90;;;;;;5076723;28;20127;-75
2022/05/09 06:30:27;;;;;;;2.05;1.10;;;15.40;99.90;;;;;;5076148;28;20099;-77
2022/05/09 06:32:56;;;;;;;2.28;1.48;;;15.30;99.90;;;;;;5070769;28;20025;-71
2022/05/09 06:35:26;;;;;;;3.50;1.30;;;15.30;99.90;;;;;;5075662;28;20047;-75
2022/05/09 06:38:05;;;;;;;1.95;0.90;;;15.30;99.90;;;;;;5075692;28;20086;-76
2022/05/09 06:40:37;;;;;;;5.15;1.40;;;15.30;99.90;;;;;;5075612;28;20023;-71
2022/05/09 06:43:06;;;;;;;3.17;1.27;;;15.30;99.90;;;;;;5076486;28;20036;-73
2022/05/09 06:45:35;;;;;;;1.30;1.20;;;15.30;99.90;;;;;;5076348;28;20059;-73
2022/05/09 06:48:03;;;;;;;2.83;1.50;;;15.30;99.90;;;;;;5076055;28;20384;-76
2022/05/09 06:50:33;;;;;;;2.28;1.10;;;15.30;99.90;;;;;;5076020;28;20124;-75
2022/05/09 06:53:02;;;;;;;4.30;1.45;;;15.30;99.90;;;;;;5076088;28;20501;-75
2022/05/09 06:55:33;;;;;;;3.88;1.63;;;15.30;99.90;;;;;;5076232;28;20040;-77
2022/05/09 06:58:04;;;;;;;2.10;1.55;;;15.30;99.90;;;;;;5075608;28;20036;-72
2022/05/09 07:00:32;;;;;;;2.53;1.83;;;15.30;99.90;;;;;;5076097;28;20027;-76
2022/05/09 07:03:00;;;;;;;3.47;1.40;;;15.30;99.90;;;;;;5076132;28;20060;-75
2022/05/09 07:05:28;;;;;;;2.25;1.40;;;15.20;99.90;;;;;;5076147;28;20465;-77
2022/05/09 07:07:55;;;;;;;5.90;1.75;;;15.20;99.90;;;;;;5075834;28;20541;-79
2022/05/09 07:10:26;;;;;;;4.75;1.50;;;15.20;99.90;;;;;;5075917;28;20089;-72
2022/05/09 07:13:04;;;;;;;5.28;1.85;;;15.20;99.90;;;;;;5074613;28;20051;-71
2022/05/09 07:15:33;;;;;;;2.92;1.23;;;15.20;99.90;;;;;;5075942;28;20381;-71
2022/05/09 07:18:02;;;;;;;3.00;1.88;;;15.20;99.90;;;;;;5075706;28;20489;-72
2022/05/09 07:20:34;;;;;;;3.67;1.83;;;15.20;99.90;;;;;;5075816;28;20024;-76
2022/05/09 07:23:11;;;;;;;3.75;1.88;;;15.20;99.90;;;;;;5075489;28;20040;-77
2022/05/09 07:25:40;;;;;;;4.10;2.28;;;15.20;99.90;;;;;;5075467;28;20043;-73
2022/05/09 07:28:09;;;;;;;3.20;1.85;;;15.20;99.90;;;;;;5072450;28;20058;-77
2022/05/09 07:30:38;;;;;;;3.42;2.20;;;15.10;99.90;;;;;;5073575;28;20035;-72
2022/05/09 07:33:06;;;;;;;2.80;2.10;;;15.10;99.90;;;;;;5073904;28;20024;-70
2022/05/09 07:35:34;;;;;;;3.58;2.03;;;15.10;99.90;;;;;;5067783;28;20437;-76
2022/05/09 07:38:01;;;;;;;2.00;1.25;;;15.10;99.90;;;;;;5066043;28;20036;-76
2022/05/09 07:40:29;;;;;;;2.75;1.50;;;15.00;99.90;;;;;;5071004;28;20114;-71
2022/05/09 07:42:58;;;;;;;3.83;1.35;;;15.00;99.90;;;;;;5073588;28;20032;-77
2022/05/09 07:45:26;;;;;;;4.10;2.00;;;15.00;99.90;;;;;;5074058;28;20031;-78
2022/05/09 07:47:54;;;;;;;2.60;1.30;;;15.00;99.90;;;;;;5074465;28;20089;-78
2022/05/09 07:50:22;;;;;;;5.97;1.40;;;15.00;99.90;;;;;;5074519;28;20494;-77
2022/05/09 07:52:49;;;;;;;3.28;1.95;;;15.00;99.90;;;;;;5074357;28;20012;-77
2022/05/09 07:55:17;;;;;;;2.17;1.75;;;15.00;99.90;;;;;;5074591;28;20020;-77
2022/05/09 07:57:45;;;;;;;7.95;2.30;;;15.00;99.90;;;;;;5074652;28;20021;-77
2022/05/09 08:00:14;;;;;;;2.13;1.73;;;15.00;99.90;;;;;;5074473;28;20112;-74
2022/05/09 08:02:42;;;;;;;3.42;2.00;;;15.00;99.90;;;;;;5073844;28;20060;-72
2022/05/09 08:05:11;;;;;;;7.35;2.67;;;15.00;99.90;;;;;;5073467;28;20028;-73
2022/05/09 08:07:39;;;;;;;3.30;2.28;;;14.90;99.90;;;;;;5075092;28;20491;-71
2022/05/09 08:10:09;;;;;;;3.05;2.33;;;14.90;99.90;;;;;;5069329;28;20060;-77
2022/05/09 08:12:37;;;;;;;5.07;2.10;;;14.90;99.90;;;;;;5074058;28;20070;-73
2022/05/09 08:15:06;;;;;;;5.78;2.72;;;14.90;99.90;;;;;;5074269;28;20092;-70
2022/05/09 08:17:34;;;;;;;5.63;2.83;;;14.90;99.90;;;;;;5073317;28;20032;-75
2022/05/09 08:20:02;;;;;;;4.85;2.25;;;14.90;99.90;;;;;;5073298;28;20078;-75
2022/05/09 08:22:31;;;;;;;4.13;2.40;;;14.80;99.90;;;;;;5072525;28;20032;-77
2022/05/09 08:25:03;;;;;;;3.92;2.28;;;14.90;99.90;;;;;;5072636;28;20100;-76
2022/05/09 08:27:31;;;;;;;4.97;2.28;;;14.80;99.90;;;;;;5072855;28;20028;-75
2022/05/09 08:29:58;;;;;;;2.97;2.20;;;14.90;99.90;;;;;;5072838;28;20066;-71
2022/05/09 08:32:28;;;;;;;13.15;2.30;;;14.80;99.90;;;;;;5072917;28;20024;-71
2022/05/09 08:34:57;;;;;;;3.95;1.90;;;14.80;99.90;;;;;;5073115;28;20142;-76
2022/05/09 08:37:25;;;;;;;4.72;2.20;;;14.80;99.90;;;;;;5074444;28;20036;-77
2022/05/09 08:39:52;;;;;;;4.22;2.55;;;14.80;99.90;;;;;;5074307;28;20023;-73
2022/05/09 08:42:30;;;;;;;5.65;2.28;;;14.80;99.90;;;;;;5074275;28;20033;-77
2022/05/09 08:45:16;;;;;;;4.80;2.42;;;14.70;99.90;;;;;;5074068;28;20013;-78
2022/05/09 08:47:51;;;;;;;7.40;2.10;;;14.70;99.90;;;;;;5074341;28;20098;-76
2022/05/09 08:50:45;;;;;;;7.50;2.97;;;14.70;99.90;;;;;;5074317;28;20016;-77
2022/05/09 08:53:25;;;;;;;6.70;2.28;;;14.80;99.90;;;;;;5074203;28;20198;-71
2022/05/09 08:55:55;;;;;;;5.30;2.63;;;14.80;99.90;;;;;;5074109;28;20028;-70
2022/05/09 08:58:55;;;;;;;9.15;2.50;;;14.70;99.90;;;;;;5074232;28;20016;-75
2022/05/09 09:01:32;;;;;;;3.97;2.42;;;14.70;99.90;;;;;;5073966;28;20423;-78
2022/05/09 09:04:02;;;;;;;4.28;2.33;;;14.70;99.90;;;;;;5073978;28;20028;-78
2022/05/09 09:06:54;;;;;;;4.72;3.42;;;14.70;99.90;;;;;;5073823;28;20108;-77
2022/05/09 09:09:38;;;;;;;3.97;2.65;;;14.70;99.90;;;;;;5073861;28;20124;-78
2022/05/09 09:12:41;;;;;;;4.40;3.33;;;14.70;99.90;;;;;;5073684;28;20486;-77
2022/05/09 09:15:32;;;;;;;5.00;3.15;;;14.60;99.90;;;;;;5073308;28;20089;-78
2022/05/09 09:18:19;;;;;;;4.57;3.30;;;14.60;99.90;;;;;;5073732;28;20024;-78
2022/05/09 09:21:07;;;;;;;5.25;2.83;;;14.60;99.90;;;;;;5073692;28;20029;-77
2022/05/09 09:24:05;;;;;;;5.47;2.97;;;14.60;99.90;;;;;;5073746;28;20036;-77
2022/05/09 09:26:38;;;;;;;5.13;3.67;;;14.60;99.90;;;;;;5073571;28;20413;-74
2022/05/09 09:29:13;;;;;;;5.63;3.60;;;14.60;99.90;;;;;;5073939;28;20363;-71
2022/05/09 09:32:01;;;;;;;7.78;3.65;;;14.60;99.90;;;;;;5073440;28;20033;-71
2022/05/09 09:34:36;;;;;;;6.20;3.72;;;14.60;99.90;;;;;;5073072;28;20040;-71
2022/05/09 09:37:13;;;;;;;5.15;3.63;;;14.60;99.90;;;;;;5072907;28;20041;-71
2022/05/09 09:39:41;;;;;;;6.20;3.08;;;14.60;99.90;;;;;;5071756;28;20028;-71
2022/05/09 09:42:09;;;;;;;6.22;2.95;;;14.60;99.90;;;;;;5072587;28;20032;-78
2022/05/09 09:44:41;;;;;;;6.50;3.28;;;14.50;99.90;;;;;;5073299;28;20029;-71
2022/05/09 09:47:34;;;;;;;6.50;3.83;;;14.50;99.90;;;;;;5073972;28;20027;-77
2022/05/09 09:50:28;;;;;;;6.00;3.33;;;14.60;99.90;;;;;;5071273;28;20035;-71
2022/05/09 09:52:58;;;;;;;4.43;3.60;;;14.60;99.90;;;;;;5072546;28;20112;-76
2022/05/09 09:55:30;;;;;;;5.63;4.32;;;14.50;99.90;;;;;;5071045;28;20021;-71
2022/05/09 09:58:12;;;;;;;6.47;4.38;;;14.50;99.90;;;;;;5071202;28;20378;-71
2022/05/09 10:00:39;;;;;;;8.30;4.22;;;14.50;99.90;;;;;;5071223;28;20020;-78
2022/05/09 10:03:22;;;;;;;6.28;4.78;;;14.50;99.90;;;;;;5073119;28;20120;-79
2022/05/09 10:05:51;;;;;;;4.43;3.60;;;14.50;99.90;;;;;;5073498;28;20025;-70
2022/05/09 10:08:39;;;;;;;7.30;4.60;;;14.50;99.90;;;;;;5072977;28;20500;-78
2022/05/09 10:11:21;;;;;;;6.90;4.65;;;14.40;99.90;;;;;;5073028;28;20078;-70
2022/05/09 10:13:54;;;;;;;6.68;5.22;;;14.50;99.90;;;;;;5073147;28;20108;-78
2022/05/09 10:16:37;;;;;;;5.43;4.43;;;14.50;99.90;;;;;;5073004;28;20027;-78
2022/05/09 10:19:09;;;;;;;7.45;4.80;;;14.40;99.90;;;;;;5073000;28;20047;-77
2022/05/09 10:24:47;;;;;;;6.95;4.80;;;14.50;99.90;;;;;;5052990;28;20028;-71
2022/05/09 10:27:25;;;;;;;10.00;5.30;;;14.50;99.90;;;;;;5052266;28;20028;-78
2022/05/09 10:29:56;;;;;;;6.88;4.50;;;14.40;99.90;;;;;;5062663;28;20019;-71
2022/05/09 10:32:49;;;;;;;7.13;4.45;;;14.40;99.90;;;;;;5072224;28;20020;-72
2022/05/09 10:35:28;;;;;;;8.27;4.82;;;14.40;99.90;;;;;;5071674;28;20182;-71
2022/05/09 10:37:58;;;;;;;5.82;4.10;;;14.40;99.90;;;;;;5067899;28;20028;-71
2022/05/09 10:40:42;;;;;;;5.25;4.03;;;14.40;99.90;;;;;;5059789;28;20389;-71
2022/05/09 10:43:33;;;;;;;7.32;4.72;;;14.40;99.90;;;;;;5051466;28;20029;-71
2022/05/09 10:46:07;;;;;;;6.30;4.30;;;14.40;99.90;;;;;;5056568;28;20416;-76
2022/05/09 10:48:59;;;;;;;6.97;4.05;;;14.40;99.90;;;;;;5054169;28;20044;-77
2022/05/09 10:52:05;;;;;;;9.65;4.78;;;14.40;99.90;;;;;;5046176;28;20037;-75
2022/05/09 10:54:44;;;;;;;6.22;5.00;;;14.30;99.90;;;;;;5052002;28;20482;-76
2022/05/09 10:57:15;;;;;;;10.55;5.60;;;14.30;99.90;;;;;;5052157;28;20037;-71
2022/05/09 10:59:45;;;;;;;9.15;5.90;;;14.40;99.90;;;;;;5050956;28;20034;-75
2022/05/09 11:02:33;;;;;;;7.22;4.93;;;14.40;99.90;;;;;;5050948;28;20025;-70
2022/05/09 11:05:01;;;;;;;9.73;5.45;;;14.30;99.90;;;;;;5054498;28;20029;-71
2022/05/09 11:07:46;;;;;;;12.85;5.95;;;14.30;99.90;;;;;;5054196;28;20416;-69
2022/05/09 11:10:33;;;;;;;10.27;5.93;;;14.40;99.90;;;;;;5056026;28;20036;-70
2022/05/09 11:13:19;;;;;;;7.72;5.85;;;14.30;99.90;;;;;;5056755;28;20028;-73
2022/05/09 11:16:07;;;;;;;10.50;6.50;;;14.30;99.90;;;;;;5055078;28;20427;-76
2022/05/09 11:19:01;;;;;;;9.50;6.22;;;14.30;99.90;;;;;;5056663;28;20109;-70
2022/05/09 11:22:05;;;;;;;13.57;5.30;;;14.30;99.90;;;;;;5053756;28;20024;-72
2022/05/09 11:25:02;;;;;;;6.53;5.72;;;14.30;99.90;;;;;;5054343;28;20032;-76
2022/05/09 11:27:35;;;;;;;6.85;5.47;;;14.20;99.90;;;;;;5054642;28;20044;-70
2022/05/09 11:30:14;;;;;;;8.15;6.13;;;14.20;99.90;;;;;;5053718;28;20020;-72
2022/05/09 11:32:43;;;;;;;7.97;6.07;;;14.20;99.90;;;;;;5054195;28;20389;-76
2022/05/09 11:35:32;;;;;;;7.63;5.80;;;14.20;99.90;;;;;;5053885;28;20053;-73
2022/05/09 11:38:08;;;;;;;9.75;5.82;;;14.20;99.90;;;;;;5057643;28;20506;-72
2022/05/09 11:40:44;;;;;;;7.35;5.50;;;14.20;99.90;;;;;;5055900;28;20098;-75
2022/05/09 11:43:37;;;;;;;11.65;6.95;;;14.20;99.90;;;;;;5066330;28;20509;-71
2022/05/09 11:46:32;;;;;;;6.53;5.45;;;14.20;99.90;;;;;;5074695;28;20436;-71
2022/05/09 11:49:14;;;;;;;11.60;5.03;;;14.10;99.90;;;;;;5073924;28;20059;-70
2022/05/09 11:51:52;;;;;;;8.82;5.47;;;14.10;99.90;;;;;;5073374;28;20033;-71
2022/05/09 11:54:29;;;;;;;9.73;5.65;;;14.10;99.90;;;;;;5068605;28;20108;-78
2022/05/09 11:57:02;;;;;;;11.18;5.55;;;14.10;99.90;;;;;;5072297;28;20025;-77
2022/05/09 11:59:34;;;;;;;5.80;4.30;;;14.10;99.90;;;;;;5073262;28;20020;-78
2022/05/09 12:02:04;;;;;;;6.05;4.95;;;14.10;99.90;;;;;;5074024;28;20032;-71
2022/05/09 12:04:40;;;;;;;7.47;5.15;;;14.10;99.90;;;;;;5072559;28;20016;-75
2022/05/09 12:07:29;;;;;;;7.28;5.47;;;14.10;99.90;;;;;;5072247;28;20024;-70
2022/05/09 12:10:17;;;;;;;6.40;4.10;;;14.10;99.90;;;;;;5087331;28;20437;-77
2022/05/09 12:12:57;;;;;;;7.55;4.72;;;14.10;99.90;;;;;;5054948;28;20108;-70
2022/05/09 12:15:24;;;;;;;6.93;4.25;;;14.10;99.90;;;;;;5054458;28;20036;-70
2022/05/09 12:18:06;;;;;;;5.97;3.97;;;14.10;99.90;;;;;;5054742;28;20370;-74
2022/05/09 12:20:37;;;;;;;4.90;3.80;;;14.10;99.90;;;;;;5054894;28;20017;-71
2022/05/09 12:23:12;;;;;;;9.05;4.40;;;14.10;99.90;;;;;;5054637;28;20041;-71
2022/05/09 12:25:48;;;;;;;7.53;4.03;;;14.00;99.90;;;;;;5054953;28;20115;-78
2022/05/09 12:28:21;;;;;;;8.73;3.40;;;14.00;99.90;;;;;;5054704;28;20406;-72
2022/05/09 12:30:56;;;;;;;7.50;3.83;;;14.10;99.90;;;;;;5054635;28;20025;-72
2022/05/09 12:33:45;;;;;;;7.55;3.35;;;14.10;99.90;;;;;;5055234;28;20347;-76
2022/05/09 12:36:28;;;;;;;6.50;3.53;;;14.10;99.90;;;;;;5067855;28;20053;-71
2022/05/09 12:39:23;;;;;;;6.20;3.05;;;14.10;99.90;;;;;;5070792;28;20018;-77
2022/05/09 12:41:55;;;;;;;7.88;3.13;;;14.00;99.90;;;;;;5070740;28;20075;-74
2022/05/09 12:44:31;;;;;;;12.15;3.20;;;14.10;99.90;;;;;;5073943;28;20162;-72
2022/05/09 12:47:06;;;;;;;2.78;2.50;;;14.00;99.90;;;;;;5071394;28;20013;-71
2022/05/09 12:49:42;;;;;;;6.55;2.97;;;14.00;99.90;;;;;;5073675;28;20074;-71
2022/05/09 12:52:12;;;;;;;4.72;2.80;;;14.00;99.90;;;;;;5073060;28;20036;-77
2022/05/09 12:55:52;;;;;;;3.55;2.67;;;14.00;99.90;;;;;;5068863;28;20480;-75
2022/05/09 12:57:36;;;;;;;7.00;3.63;;;14.00;99.90;;;;;;5073221;28;20012;-77
2022/05/09 13:00:13;;;;;;;3.85;2.63;;;14.10;99.90;;;;;;5073558;28;20028;-77
2022/05/09 13:02:41;;;;;;;3.25;2.60;;;14.00;99.90;;;;;;5071655;28;20497;-75
2022/05/09 13:05:10;;;;;;;2.92;1.80;;;14.00;99.90;;;;;;5073297;28;20044;-77
2022/05/09 13:07:54;;;;;;;3.17;2.00;;;14.00;99.90;;;;;;5070847;28;20025;-76
2022/05/09 13:10:22;;;;;;;5.60;2.25;;;14.00;99.90;;;;;;5071718;28;20051;-72
2022/05/09 13:12:53;;;;;;;4.25;2.70;;;14.00;99.90;;;;;;5073747;28;20078;-78
2022/05/09 13:15:21;;;;;;;5.10;2.90;;;14.00;99.90;;;;;;5073763;28;20108;-71
2022/05/09 13:18:18;;;;;;;5.75;2.88;;;14.00;99.90;;;;;;5073487;28;20059;-71
2022/05/09 13:20:52;;;;;;;4.07;2.33;;;14.00;99.90;;;;;;5072258;28;20111;-71
2022/05/09 13:23:28;;;;;;;3.60;2.20;;;14.00;99.90;;;;;;5073848;28;20039;-77
2022/05/09 13:26:00;;;;;;;4.97;2.70;;;14.00;99.90;;;;;;5073034;28;20017;-71
2022/05/09 13:28:31;;;;;;;5.78;2.25;;;14.00;99.90;;;;;;5074020;28;20040;-77
2022/05/09 13:30:59;;;;;;;4.10;2.20;;;14.00;99.90;;;;;;5073906;28;20097;-77
2022/05/09 13:33:32;;;;;;;2.58;2.03;;;14.00;99.90;;;;;;5073713;28;20473;-72